Time;durP1;ratioP1;P1;durP2;ratioP2;P2;SDS_P1;SDS_P2;PMS_P1;PMS_P2;Temp;Humidity;BMP_temperature;BMP_pressure;BME280_temperature;BME280_humidity;BME280_pressure;Samples;Min_cycle;Max_cycle;Signal;HPM_P1;HPM_P2
2022/11/22 00:02:11;;;;;;;;;0.00;0.00;;;;;8.76;100.00;99247.97;5076616;27;53840;-72
2022/11/22 00:04:36;;;;;;;;;0.67;0.67;;;;;8.76;100.00;99251.47;5076309;27;62106;-73
2022/11/22 00:07:01;;;;;;;;;3.50;0.00;;;;;8.76;100.00;99248.84;5077067;28;46107;-72
2022/11/22 00:09:27;;;;;;;;;0.33;0.00;;;;;8.72;100.00;99244.47;5077103;27;45437;-72
2022/11/22 00:11:52;;;;;;;;;0.00;0.00;;;;;8.74;100.00;99252.38;5087228;27;58908;-72
2022/11/22 00:14:17;;;;;;;;;0.00;0.00;;;;;8.72;100.00;99254.13;5076822;28;46454;-71
2022/11/22 00:16:43;;;;;;;;;0.50;0.50;;;;;8.68;100.00;99250.63;5073600;27;53519;-73
2022/11/22 00:19:08;;;;;;;;;0.00;0.00;;;;;8.68;100.00;99245.38;5077610;27;45272;-72
2022/11/22 00:21:34;;;;;;;;;3.00;0.00;;;;;8.70;100.00;99248.00;5077569;28;45443;-72
2022/11/22 00:23:59;;;;;;;;;2.25;0.00;;;;;8.65;100.00;99240.16;5075502;28;58754;-74
2022/11/22 00:26:24;;;;;;;;;1.00;0.00;;;;;8.67;100.00;99243.63;5076932;27;57514;-73
2022/11/22 00:28:50;;;;;;;;;0.00;0.00;;;;;8.63;100.00;99239.28;5092233;27;58147;-72
2022/11/22 00:31:15;;;;;;;;;1.00;0.00;;;;;8.65;100.00;99235.75;5076939;28;49092;-73
2022/11/22 00:33:40;;;;;;;;;0.75;0.00;;;;;8.69;100.00;99236.63;5076295;27;62332;-74
2022/11/22 00:36:06;;;;;;;;;0.00;0.00;;;;;8.68;100.00;99234.84;5076478;28;58274;-72
2022/11/22 00:38:31;;;;;;;;;1.00;0.00;;;;;8.70;100.00;99240.13;5076931;27;45324;-72
2022/11/22 00:40:57;;;;;;;;;0.00;0.00;;;;;8.67;100.00;99230.47;5077539;28;45450;-72
2022/11/22 00:43:22;;;;;;;;;0.67;0.00;;;;;8.69;100.00;99244.50;5076613;27;59558;-74
2022/11/22 00:45:47;;;;;;;;;1.00;1.00;;;;;8.71;100.00;99241.84;5075637;27;61629;-73
2022/11/22 00:48:13;;;;;;;;;1.00;0.00;;;;;8.71;100.00;99233.97;5074499;28;58637;-72
2022/11/22 00:50:38;;;;;;;;;1.00;0.00;;;;;8.70;100.00;99238.34;5075452;28;60087;-72
2022/11/22 00:53:04;;;;;;;;;0.00;0.00;;;;;8.69;100.00;99236.63;5073433;27;46696;-72
2022/11/22 00:55:29;;;;;;;;;1.00;0.00;;;;;8.73;100.00;99232.19;5075466;28;59286;-73
2022/11/22 00:57:54;;;;;;;;;0.00;0.00;;;;;8.74;100.00;99231.31;5075408;27;45481;-72
2022/11/22 01:00:20;;;;;;;;;0.75;0.00;;;;;8.75;100.00;99226.03;5075566;27;60776;-73
2022/11/22 01:02:45;;;;;;;;;0.00;0.00;;;;;8.76;100.00;99226.91;5074201;28;47656;-71
2022/11/22 01:05:10;;;;;;;;;2.75;1.00;;;;;8.76;100.00;99233.03;5074997;28;67420;-72
2022/11/22 01:07:36;;;;;;;;;4.33;0.00;;;;;8.79;100.00;99243.56;5076229;27;45464;-73
2022/11/22 01:10:01;;;;;;;;;0.00;0.00;;;;;8.82;100.00;99229.50;5074983;27;45905;-73
2022/11/22 01:12:26;;;;;;;;;2.00;0.00;;;;;8.84;100.00;99225.06;5074239;27;52552;-72
2022/11/22 01:14:51;;;;;;;;;2.33;0.00;;;;;8.89;100.00;99225.91;5075160;27;62289;-73
2022/11/22 01:17:17;;;;;;;;;0.00;0.00;;;;;8.90;100.00;99218.03;5073637;28;54971;-72
2022/11/22 01:19:42;;;;;;;;;0.00;0.00;;;;;8.93;100.00;99219.75;5076738;27;48531;-73
2022/11/22 01:22:08;;;;;;;;;0.00;0.00;;;;;8.92;100.00;99218.88;5075290;27;69306;-72
2022/11/22 01:24:33;;;;;;;;;1.00;0.00;;;;;8.98;100.00;99223.22;5075994;27;63001;-72
2022/11/22 01:26:58;;;;;;;;;1.00;0.00;;;;;9.02;100.00;99235.47;5075504;27;51755;-72
2022/11/22 01:29:24;;;;;;;;;0.00;0.00;;;;;9.04;100.00;99238.09;5071811;28;59425;-72
2022/11/22 01:31:49;;;;;;;;;0.67;0.00;;;;;9.05;100.00;99234.56;5070424;28;50564;-73
2022/11/22 01:34:14;;;;;;;;;6.00;0.00;;;;;9.06;100.00;99231.94;5076403;28;45440;-72
2022/11/22 01:36:40;;;;;;;;;1.33;0.00;;;;;9.08;100.00;99216.13;5075544;28;62587;-74
2022/11/22 01:39:05;;;;;;;;;1.00;0.00;;;;;9.14;100.00;99238.00;5071065;27;57798;-75
2022/11/22 01:41:30;;;;;;;;;1.00;0.00;;;;;9.15;100.00;99223.06;5073577;28;63597;-73
2022/11/22 01:43:56;;;;;;;;;0.00;0.00;;;;;9.21;100.00;99232.66;5089012;27;45391;-73
2022/11/22 01:46:32;;;;;;;;;0.67;0.00;;;;;9.20;100.00;99218.63;5074087;28;58776;-73
2022/11/22 01:49:13;;;;;;;;;0.00;0.00;;;;;9.16;100.00;99219.53;5091924;27;45290;-72
2022/11/22 01:51:44;;;;;;;;;1.33;0.00;;;;;9.18;100.00;99226.56;5074202;28;46271;-72
2022/11/22 01:54:18;;;;;;;;;1.00;0.00;;;;;9.16;100.00;99216.91;5075075;28;45371;-72
2022/11/22 01:56:47;;;;;;;;;0.00;0.00;;;;;9.16;100.00;99216.91;5074673;28;45212;-74
2022/11/22 01:59:16;;;;;;;;;0.00;0.00;;;;;9.13;100.00;99214.31;5075982;27;45422;-71
2022/11/22 02:01:42;;;;;;;;;0.33;0.00;;;;;9.10;100.00;99202.03;5076670;28;45446;-72
2022/11/22 02:04:09;;;;;;;;;1.00;0.00;;;;;9.08;100.00;99219.63;5088744;27;62760;-74
2022/11/22 02:07:07;;;;;;;;;0.00;0.00;;;;;9.05;100.00;99222.25;5079192;27;45454;-71
2022/11/22 02:09:34;;;;;;;;;0.00;0.00;;;;;9.01;100.00;99203.91;5078880;27;45508;-74
2022/11/22 02:12:01;;;;;;;;;0.00;0.00;;;;;8.97;100.00;99216.22;5074304;28;45868;-72
2022/11/22 02:14:27;;;;;;;;;0.25;0.00;;;;;8.92;100.00;99216.25;5078135;28;45330;-72
2022/11/22 02:16:53;;;;;;;;;0.00;0.00;;;;;8.93;100.00;99220.63;5078894;27;45483;-73
2022/11/22 02:19:45;;;;;;;;;0.00;0.00;;;;;8.92;100.00;99204.84;5075314;27;45417;-72
2022/11/22 02:22:39;;;;;;;;;0.00;0.00;;;;;8.96;100.00;99213.59;5078331;28;46751;-72
2022/11/22 02:25:11;;;;;;;;;0.00;0.00;;;;;8.96;100.00;99214.47;5078278;28;45324;-72
2022/11/22 02:27:36;;;;;;;;;0.00;0.00;;;;;8.96;100.00;99216.22;5060524;28;45339;-72
2022/11/22 02:30:02;;;;;;;;;1.50;0.00;;;;;8.99;100.00;99208.28;5064273;28;45994;-72
2022/11/22 02:32:27;;;;;;;;;0.00;0.00;;;;;8.99;100.00;99211.78;5066076;27;46470;-72
2022/11/22 02:34:52;;;;;;;;;0.00;0.00;;;;;8.95;100.00;99207.47;5062026;28;65984;-72
2022/11/22 02:37:22;;;;;;;;;0.00;0.00;;;;;8.98;100.00;99203.91;5067876;28;62451;-72
2022/11/22 02:39:51;;;;;;;;;0.00;0.00;;;;;8.93;100.00;99194.28;5064107;28;45443;-72
2022/11/22 02:42:16;;;;;;;;;0.33;0.33;;;;;8.95;100.00;99201.28;5086793;27;45989;-72
2022/11/22 02:44:41;;;;;;;;;1.33;0.00;;;;;8.95;100.00;99198.66;5078438;27;45451;-71
2022/11/22 02:47:07;;;;;;;;;0.00;0.00;;;;;8.93;100.00;99202.19;5075455;28;45601;-72
2022/11/22 02:49:32;;;;;;;;;0.00;0.00;;;;;8.97;100.00;99202.19;5077775;27;56267;-71
2022/11/22 02:51:57;;;;;;;;;1.67;0.00;;;;;8.96;100.00;99192.53;5077221;28;69091;-73
2022/11/22 02:54:23;;;;;;;;;0.00;0.00;;;;;9.02;100.00;99187.22;5077406;27;59109;-73
2022/11/22 02:56:48;;;;;;;;;0.00;0.00;;;;;9.05;100.00;99187.16;5077895;27;47997;-72
2022/11/22 02:59:14;;;;;;;;;0.00;0.00;;;;;9.11;100.00;99190.63;5078090;27;45476;-73
2022/11/22 03:01:39;;;;;;;;;0.00;0.00;;;;;9.13;100.00;99180.97;5071484;28;46248;-73
2022/11/22 03:04:05;;;;;;;;;0.33;0.00;;;;;9.15;100.00;99184.44;5077572;27;45383;-71
2022/11/22 03:06:30;;;;;;;;;0.00;0.00;;;;;9.20;100.00;99176.50;5076797;28;45557;-72
2022/11/22 03:08:55;;;;;;;;;0.00;0.00;;;;;9.24;100.00;99162.41;5076771;28;45378;-72
2022/11/22 03:11:21;;;;;;;;;0.00;0.00;;;;;9.23;100.00;99160.69;5076152;27;45683;-73
2022/11/22 03:13:46;;;;;;;;;0.00;0.00;;;;;9.23;100.00;99157.16;5077314;28;45362;-73
2022/11/22 03:16:11;;;;;;;;;2.00;0.00;;;;;9.25;100.00;99152.75;5077001;27;45468;-72
2022/11/22 03:18:37;;;;;;;;;1.00;0.00;;;;;9.25;100.00;99152.75;5077469;28;55268;-71
2022/11/22 03:21:07;;;;;;;;;3.00;0.00;;;;;9.27;100.00;99156.22;5077338;27;49722;-72
2022/11/22 03:23:33;;;;;;;;;1.00;0.00;;;;;9.28;100.00;99153.59;5070025;28;45603;-72
2022/11/22 03:25:58;;;;;;;;;0.33;0.00;;;;;9.32;100.00;99159.69;5078069;27;45456;-71
2022/11/22 03:28:24;;;;;;;;;1.67;0.00;;;;;9.32;100.00;99147.41;5077249;28;45399;-72
2022/11/22 03:30:50;;;;;;;;;0.00;0.00;;;;;9.34;100.00;99155.28;5077466;28;45611;-72
2022/11/22 03:33:15;;;;;;;;;1.00;0.00;;;;;9.34;100.00;99156.16;5076580;27;62475;-71
2022/11/22 03:35:40;;;;;;;;;3.75;0.00;;;;;9.33;100.00;99151.78;5076802;27;62401;-71
2022/11/22 03:38:06;;;;;;;;;0.33;0.00;;;;;9.36;100.00;99157.00;5077345;27;45431;-73
2022/11/22 03:40:32;;;;;;;;;0.00;0.00;;;;;9.39;100.00;99146.44;5073422;28;67224;-71
2022/11/22 03:42:59;;;;;;;;;1.00;1.00;;;;;9.41;100.00;99155.19;5076347;28;45374;-72
2022/11/22 03:45:24;;;;;;;;;2.00;0.00;;;;;9.37;100.00;99142.94;5075891;28;45506;-72
2022/11/22 03:47:50;;;;;;;;;2.00;0.00;;;;;9.39;100.00;99154.34;5077587;27;45128;-72
2022/11/22 03:50:15;;;;;;;;;0.00;0.00;;;;;9.40;100.00;99145.56;5076552;27;67951;-72
2022/11/22 03:52:40;;;;;;;;;0.00;0.00;;;;;9.37;100.00;99132.41;5076045;27;63927;-72
2022/11/22 03:55:06;;;;;;;;;1.00;0.00;;;;;9.43;100.00;99142.91;5076743;27;53576;-72
2022/11/22 03:57:31;;;;;;;;;2.33;0.00;;;;;9.45;100.00;99148.13;5058334;28;45598;-72
2022/11/22 03:59:56;;;;;;;;;3.00;0.00;;;;;9.39;100.00;99154.34;5074875;28;63114;-72
2022/11/22 04:02:22;;;;;;;;;0.00;0.00;;;;;9.42;100.00;99145.53;5076402;27;51451;-72
2022/11/22 04:04:47;;;;;;;;;0.00;0.00;;;;;9.41;100.00;99159.59;5077092;27;55247;-72
2022/11/22 04:07:12;;;;;;;;;0.00;0.00;;;;;9.43;100.00;99147.31;5076057;27;58077;-71
2022/11/22 04:09:38;;;;;;;;;1.33;0.00;;;;;9.49;100.00;99159.53;5076305;28;57879;-71
2022/11/22 04:12:03;;;;;;;;;0.00;0.00;;;;;9.52;100.00;99148.94;5074488;28;49303;-72
2022/11/22 04:17:13;;;;;;;;;0.00;0.00;;;;;9.54;100.00;99145.41;5077220;28;45124;-73
2022/11/22 04:21:32;;;;;;;;;1.00;0.00;;;;;9.56;100.00;99145.38;5075619;28;46490;-73
2022/11/22 04:22:24;;;;;;;;;0.00;0.00;;;;;9.54;100.00;99123.47;5077150;28;45464;-73
2022/11/22 04:27:33;;;;;;;;;0.00;0.00;;;;;9.61;100.00;99135.66;5074576;28;45470;-72
2022/11/22 04:29:58;;;;;;;;;0.00;0.00;;;;;9.61;100.00;99120.72;5075661;28;65771;-73
2022/11/22 04:35:08;;;;;;;;;1.33;0.00;;;;;9.61;100.00;99102.28;5076896;28;45492;-72
2022/11/22 04:37:33;;;;;;;;;0.00;0.00;;;;;9.62;100.00;99105.78;5076391;27;54687;-72
2022/11/22 04:39:58;;;;;;;;;0.00;0.00;;;;;9.63;100.00;99100.47;5076290;27;63387;-73
2022/11/22 04:45:08;;;;;;;;;0.00;0.00;;;;;9.65;100.00;99100.47;5075781;28;45448;-71
2022/11/22 04:53:01;;;;;;;;;0.00;0.00;;;;;9.63;100.00;99096.97;5076029;28;45563;-73
2022/11/22 04:55:27;;;;;;;;;1.67;0.00;;;;;9.66;100.00;99104.84;5075599;27;45462;-72
2022/11/22 04:57:52;;;;;;;;;0.00;0.00;;;;;9.67;100.00;99115.34;5071983;28;59163;-74
2022/11/22 05:00:17;;;;;;;;;0.00;0.00;;;;;9.66;100.00;99112.75;5070943;27;46431;-74
2022/11/22 05:02:43;;;;;;;;;0.00;0.00;;;;;9.68;100.00;99105.69;5076664;27;45647;-74
2022/11/22 05:05:09;;;;;;;;;0.00;0.00;;;;;9.73;100.00;99100.34;5066586;27;45513;-70
2022/11/22 05:07:34;;;;;;;;;0.00;0.00;;;;;9.68;100.00;99106.56;5039803;28;46470;-73
2022/11/22 05:10:00;;;;;;;;;0.00;0.00;;;;;9.70;100.00;99109.19;5035311;28;68046;-74
2022/11/22 05:12:25;;;;;;;;;1.00;0.00;;;;;9.73;100.00;99103.00;5057963;28;61495;-72
2022/11/22 05:14:50;;;;;;;;;0.00;0.00;;;;;9.77;100.00;99116.13;5059883;28;56208;-74
2022/11/22 05:17:16;;;;;;;;;1.00;0.00;;;;;9.78;100.00;99112.59;5061876;28;56254;-71
2022/11/22 05:19:41;;;;;;;;;1.00;0.00;;;;;9.76;100.00;99111.75;5054691;28;66392;-74
2022/11/22 05:22:06;;;;;;;;;0.00;0.00;;;;;9.74;100.00;99097.69;5050817;28;67561;-74
2022/11/22 05:24:32;;;;;;;;;2.00;0.00;;;;;9.77;100.00;99102.94;5053866;28;45729;-74
2022/11/22 05:27:00;;;;;;;;;0.00;0.00;;;;;9.74;100.00;99112.63;5055460;28;45301;-71
2022/11/22 05:29:25;;;;;;;;;0.00;0.00;;;;;9.74;100.00;99118.78;5054589;28;45576;-73
2022/11/22 05:31:51;;;;;;;;;0.67;0.00;;;;;9.71;100.00;99122.34;5053314;28;67122;-74
2022/11/22 05:34:16;;;;;;;;;2.00;0.00;;;;;9.67;100.00;99118.00;5036484;28;57755;-74
2022/11/22 05:36:41;;;;;;;;;0.00;0.00;;;;;9.65;100.00;99119.78;5057948;28;59884;-74
2022/11/22 05:39:07;;;;;;;;;0.00;0.00;;;;;9.62;100.00;99116.31;5058385;28;55429;-73
2022/11/22 05:41:32;;;;;;;;;0.00;0.00;;;;;9.54;100.00;99119.06;5058044;28;65641;-73
2022/11/22 05:43:57;;;;;;;;;0.00;0.00;;;;;9.50;100.00;99138.41;5058460;28;62601;-73
2022/11/22 05:46:25;;;;;;;;;0.00;0.00;;;;;9.47;100.00;99129.66;5033349;28;52257;-73
2022/11/22 05:48:53;;;;;;;;;0.33;0.00;;;;;9.41;100.00;99131.50;5058731;28;46059;-75
2022/11/22 05:51:20;;;;;;;;;0.00;0.00;;;;;9.36;100.00;99135.94;5041116;28;45643;-74
2022/11/22 05:53:46;;;;;;;;;0.00;0.00;;;;;9.35;100.00;99142.09;5043273;28;45556;-73
2022/11/22 05:56:16;;;;;;;;;0.00;0.00;;;;;9.31;100.00;99136.88;5061736;28;58661;-75
2022/11/22 05:58:42;;;;;;;;;0.33;0.00;;;;;9.34;100.00;99148.25;5060139;28;46010;-77
2022/11/22 06:01:10;;;;;;;;;0.00;0.00;;;;;9.34;100.00;99139.50;5047602;28;45257;-76
2022/11/22 06:03:36;;;;;;;;;0.00;0.00;;;;;9.36;100.00;99132.44;5043942;28;45348;-76
2022/11/22 06:06:02;;;;;;;;;1.67;0.00;;;;;9.41;100.00;99128.84;5064892;28;45441;-76
2022/11/22 06:08:29;;;;;;;;;1.00;0.00;;;;;9.45;100.00;99127.06;5093045;27;46666;-77
2022/11/22 06:10:55;;;;;;;;;0.00;0.00;;;;;9.48;100.00;99127.03;5070945;27;45332;-78
2022/11/22 06:13:20;;;;;;;;;1.00;0.00;;;;;9.50;100.00;99112.06;5076035;27;45459;-75
2022/11/22 06:15:45;;;;;;;;;0.00;0.00;;;;;9.54;100.00;99110.28;5077458;27;58647;-76
2022/11/22 06:18:11;;;;;;;;;0.00;0.00;;;;;9.54;100.00;99111.16;5078024;27;64125;-74
2022/11/22 06:20:36;;;;;;;;;0.00;0.00;;;;;9.57;100.00;99112.84;5078040;27;62311;-74
2022/11/22 06:23:01;;;;;;;;;1.00;0.00;;;;;9.57;100.00;99115.50;5075212;28;45686;-74
2022/11/22 06:25:27;;;;;;;;;0.00;0.00;;;;;9.55;100.00;99109.38;5072808;27;57300;-74
2022/11/22 06:27:52;;;;;;;;;0.00;0.00;;;;;9.52;100.00;99120.81;5075516;28;45834;-74
2022/11/22 06:30:18;;;;;;;;;0.00;0.00;;;;;9.52;100.00;99112.91;5077373;27;45385;-74
2022/11/22 06:32:43;;;;;;;;;0.00;0.00;;;;;9.57;100.00;99139.22;5077485;27;45545;-74
2022/11/22 06:35:08;;;;;;;;;0.00;0.00;;;;;9.55;100.00;99118.16;5077326;27;45412;-73
2022/11/22 06:37:34;;;;;;;;;0.00;0.00;;;;;9.55;100.00;99130.47;5088709;27;46839;-74
2022/11/22 06:39:59;;;;;;;;;1.00;1.00;;;;;9.49;100.00;99126.16;5093282;27;47452;-75
2022/11/22 06:42:26;;;;;;;;;1.00;0.00;;;;;9.38;100.00;99118.38;5075682;28;45389;-74
2022/11/22 06:44:51;;;;;;;;;0.00;0.00;;;;;9.28;100.00;99114.09;5077655;27;45314;-75
2022/11/22 06:47:16;;;;;;;;;1.00;0.00;;;;;9.19;100.00;99122.09;5070982;27;67798;-74
2022/11/22 06:49:43;;;;;;;;;0.00;0.00;;;;;9.10;100.00;99137.97;5071157;28;45636;-74
2022/11/22 06:52:08;;;;;;;;;1.67;0.00;;;;;9.07;100.00;99127.50;5072908;27;45572;-74
2022/11/22 06:54:34;;;;;;;;;0.00;0.00;;;;;9.03;100.00;99125.78;5074458;27;45428;-74
2022/11/22 06:56:59;;;;;;;;;0.00;0.00;;;;;9.01;100.00;99128.44;5076156;27;46056;-74
2022/11/22 06:59:25;;;;;;;;;1.00;0.00;;;;;9.02;100.00;99130.16;5075334;27;62880;-74
2022/11/22 07:01:50;;;;;;;;;0.00;0.00;;;;;9.01;100.00;99135.47;5077690;27;45337;-74
2022/11/22 07:04:15;;;;;;;;;1.67;0.00;;;;;9.06;100.00;99136.28;5214753;22;59270;-74
2022/11/22 07:06:42;;;;;;;;;0.00;0.00;;;;;9.10;100.00;99133.56;5095572;27;64357;-74
2022/11/22 07:09:09;;;;;;;;;1.00;0.00;;;;;9.15;100.00;99147.56;5095577;27;45656;-74
2022/11/22 07:11:35;;;;;;;;;0.00;0.00;;;;;9.21;100.00;99143.13;5093557;27;45432;-73
2022/11/22 07:14:02;;;;;;;;;1.00;0.00;;;;;9.24;100.00;99143.97;5096997;27;45517;-74
2022/11/22 07:16:27;;;;;;;;;0.00;0.00;;;;;9.23;100.00;99152.78;5094432;27;47073;-75
2022/11/22 07:18:52;;;;;;;;;0.00;0.00;;;;;9.24;100.00;99140.47;5097218;27;45354;-74
2022/11/22 07:21:20;;;;;;;;;0.00;0.00;;;;;9.20;100.00;99137.00;5087785;27;45634;-77
2022/11/22 07:23:47;;;;;;;;;0.33;0.00;;;;;9.21;100.00;99148.41;5096552;27;45370;-76
2022/11/22 07:26:14;;;;;;;;;0.00;0.00;;;;;9.23;100.00;99151.91;5097916;27;46117;-76
2022/11/22 07:28:40;;;;;;;;;0.00;0.00;;;;;9.31;100.00;99165.84;5097625;27;45543;-76
2022/11/22 07:31:07;;;;;;;;;0.00;0.00;;;;;9.34;100.00;99168.47;5096394;27;45379;-76
2022/11/22 07:33:33;;;;;;;;;0.00;0.00;;;;;9.38;100.00;99192.13;5096680;27;46556;-76
2022/11/22 07:36:05;;;;;;;;;0.00;0.00;;;;;9.42;100.00;99182.41;5097272;27;48632;-75
2022/11/22 07:38:31;;;;;;;;;0.00;0.00;;;;;9.42;100.00;99172.75;5095716;27;45836;-76
2022/11/22 07:40:56;;;;;;;;;0.00;0.00;;;;;9.35;100.00;99191.28;5098335;27;45529;-74
2022/11/22 07:43:22;;;;;;;;;1.00;0.00;;;;;9.33;100.00;99174.63;5095904;27;52007;-77
2022/11/22 07:45:47;;;;;;;;;0.00;0.00;;;;;9.32;100.00;99186.94;5096636;27;71214;-76
2022/11/22 07:48:13;;;;;;;;;0.00;0.00;;;;;9.32;100.00;99186.94;5093553;27;69024;-76
2022/11/22 07:50:40;;;;;;;;;0.00;0.00;;;;;9.29;100.00;99189.56;5096399;27;45486;-76
2022/11/22 07:53:05;;;;;;;;;0.00;0.00;;;;;9.27;100.00;99203.63;5092469;27;45415;-76
2022/11/22 07:55:31;;;;;;;;;0.00;0.00;;;;;9.26;100.00;99194.88;5078691;27;51422;-76
2022/11/22 07:57:59;;;;;;;;;1.00;0.00;;;;;9.27;100.00;99190.47;5095674;27;65724;-75
2022/11/22 08:00:26;;;;;;;;;0.00;0.00;;;;;9.26;100.00;99194.00;5093901;27;45853;-76
2022/11/22 08:02:51;;;;;;;;;0.00;0.00;;;;;9.19;100.00;99183.53;5097079;27;45418;-75
2022/11/22 08:05:17;;;;;;;;;0.00;0.00;;;;;9.14;100.00;99184.47;5075184;27;67772;-75
2022/11/22 08:07:49;;;;;;;;;0.00;0.00;;;;;9.11;100.00;99190.63;5096770;27;60887;-76
2022/11/22 08:10:15;;;;;;;;;0.00;0.00;;;;;9.11;100.00;99195.03;5097995;27;45453;-75
2022/11/22 08:12:41;;;;;;;;;0.00;0.00;;;;;9.11;100.00;99198.53;5095843;27;45238;-75
2022/11/22 08:15:06;;;;;;;;;1.00;0.00;;;;;9.15;100.00;99186.19;5096293;27;45780;-76
2022/11/22 08:17:32;;;;;;;;;0.00;0.00;;;;;9.16;100.00;99198.47;5097094;27;45484;-75
2022/11/22 08:19:57;;;;;;;;;0.00;0.00;;;;;9.19;100.00;99209.84;5096928;27;61573;-76
2022/11/22 08:22:22;;;;;;;;;0.00;0.00;;;;;9.18;100.00;99199.34;5096742;27;60833;-76
2022/11/22 08:24:48;;;;;;;;;0.00;0.00;;;;;9.28;100.00;99211.53;5094891;27;58596;-76
2022/11/22 08:27:13;;;;;;;;;1.00;0.00;;;;;9.32;100.00;99200.09;5097471;27;45298;-75
2022/11/22 08:29:39;;;;;;;;;0.00;0.00;;;;;9.35;100.00;99205.31;5096897;27;56118;-76
2022/11/22 08:32:04;;;;;;;;;1.00;0.00;;;;;9.36;100.00;99198.28;5096721;27;47018;-74
2022/11/22 08:34:29;;;;;;;;;0.00;0.00;;;;;9.37;100.00;99206.16;5096582;27;67227;-76
2022/11/22 08:36:55;;;;;;;;;0.33;0.00;;;;;9.44;100.00;99221.03;5097072;27;45467;-76
2022/11/22 08:39:21;;;;;;;;;0.00;0.00;;;;;9.48;100.00;99221.88;5096895;27;58294;-76
2022/11/22 08:41:46;;;;;;;;;0.00;0.00;;;;;9.53;100.00;99232.34;5097498;27;45486;-75
2022/11/22 08:44:12;;;;;;;;;0.00;0.00;;;;;9.56;100.00;99232.31;5096862;27;45463;-74
2022/11/22 08:46:37;;;;;;;;;0.00;0.00;;;;;9.62;100.00;99227.00;5093441;27;64585;-76
2022/11/22 08:49:05;;;;;;;;;0.00;0.00;;;;;9.71;100.00;99230.41;5096159;27;59034;-76
2022/11/22 08:51:31;;;;;;;;;0.00;0.00;;;;;9.79;100.00;99225.03;5089748;27;45527;-75
2022/11/22 08:53:56;;;;;;;;;0.00;0.00;;;;;9.89;100.00;99221.38;5096930;27;45287;-75
2022/11/22 08:56:21;;;;;;;;;0.00;0.00;;;;;9.93;100.00;99223.09;5094992;27;62867;-75
2022/11/22 08:58:46;;;;;;;;;0.00;0.00;;;;;10.04;100.00;99232.66;5095809;27;63734;-75
2022/11/22 09:01:17;;;;;;;;;0.67;0.00;;;;;10.07;100.00;99224.72;5112234;27;59979;-75
2022/11/22 09:03:43;;;;;;;;;0.00;0.00;;;;;10.12;100.00;99212.31;5094950;27;46626;-75
2022/11/22 09:06:11;;;;;;;;;0.00;0.00;;;;;10.12;100.00;99236.03;5095144;27;45286;-75
2022/11/22 09:08:36;;;;;;;;;3.33;0.00;;;;;10.11;100.00;99229.03;5095558;27;45274;-75
2022/11/22 09:11:07;;;;;;;;;2.33;0.00;;;;;10.11;100.00;99234.31;5094087;27;45881;-75
2022/11/22 09:13:33;;;;;;;;;0.00;0.00;;;;;10.14;100.00;99226.38;5096354;27;46975;-75
2022/11/22 09:16:09;;;;;;;;;2.00;0.00;;;;;10.18;100.00;99226.31;5095253;27;45332;-76
2022/11/22 09:18:35;;;;;;;;;0.00;0.00;;;;;10.28;100.00;99223.56;5095229;27;46603;-76
2022/11/22 09:21:03;;;;;;;;;1.00;0.00;;;;;10.37;100.00;99236.63;5095692;27;45477;-75
2022/11/22 09:23:28;;;;;;;;;0.00;0.00;;;;;10.45;100.00;99226.88;5094549;27;48903;-74
2022/11/22 09:25:58;;;;;;;;;0.00;0.00;;;;;10.46;100.00;99228.59;5096165;27;65044;-76
2022/11/22 09:28:25;;;;;;;;;0.00;0.00;;;;;10.44;100.00;99227.75;5096519;27;45321;-75
2022/11/22 09:30:57;;;;;;;;;0.33;0.00;;;;;10.41;100.00;99236.56;5096807;27;45297;-75
2022/11/22 09:33:22;;;;;;;;;1.00;0.00;;;;;10.41;100.00;99230.44;5095956;27;46608;-76
2022/11/22 09:35:48;;;;;;;;;0.67;0.00;;;;;10.36;100.00;99222.56;5092701;27;61571;-76
2022/11/22 09:38:13;;;;;;;;;0.00;0.00;;;;;10.38;100.00;99227.81;5090772;27;55181;-76
2022/11/22 09:40:44;;;;;;;;;0.67;0.00;;;;;10.39;100.00;99235.75;5092946;27;45362;-75
2022/11/22 09:43:21;;;;;;;;;8.67;0.00;;;;;10.40;100.00;99228.69;5094671;27;45896;-76
2022/11/22 09:46:22;;;;;;;;;1.67;0.00;;;;;10.46;100.00;99233.88;5095929;27;45234;-75
2022/11/22 09:49:16;;;;;;;;;3.00;0.00;;;;;10.46;100.00;99244.44;5090290;27;45495;-76
2022/11/22 09:51:55;;;;;;;;;0.00;0.00;;;;;10.48;100.00;99240.88;5075506;27;45548;-75
2022/11/22 09:54:34;;;;;;;;;3.00;0.00;;;;;10.52;100.00;99236.44;5094603;27;45618;-76
2022/11/22 09:57:03;;;;;;;;;2.00;0.00;;;;;10.56;100.00;99214.38;5095280;27;45355;-75
2022/11/22 09:59:32;;;;;;;;;0.00;0.00;;;;;10.63;100.00;99233.63;5095804;27;45259;-77
2022/11/22 10:02:13;;;;;;;;;0.33;0.00;;;;;10.65;100.00;99237.09;5094616;27;45339;-76
2022/11/22 10:04:59;;;;;;;;;0.00;0.00;;;;;10.68;100.00;99221.22;5112029;27;45671;-75
2022/11/22 10:07:34;;;;;;;;;1.33;0.00;;;;;10.71;100.00;99234.41;5090640;27;45382;-75
2022/11/22 10:10:06;;;;;;;;;0.00;0.00;;;;;10.75;100.00;99246.63;5088180;27;45476;-75
2022/11/22 10:12:37;;;;;;;;;0.00;0.00;;;;;10.78;100.00;99240.44;5091316;27;46874;-75
2022/11/22 10:15:09;;;;;;;;;2.00;0.00;;;;;10.79;100.00;99236.91;5089357;27;47135;-76
2022/11/22 10:17:55;;;;;;;;;0.00;0.00;;;;;10.81;100.00;99245.66;5092818;27;45492;-74
2022/11/22 10:20:26;;;;;;;;;3.33;0.00;;;;;10.85;100.00;99244.72;5094092;27;45373;-74
2022/11/22 10:22:52;;;;;;;;;2.33;0.00;;;;;10.88;100.00;99263.19;5097842;27;45390;-76
2022/11/22 10:25:19;;;;;;;;;0.00;0.00;;;;;10.96;100.00;99250.72;5098472;27;56722;-75
2022/11/22 10:27:50;;;;;;;;;1.67;0.00;;;;;11.02;100.00;99246.22;5097730;27;45560;-76
2022/11/22 10:30:18;;;;;;;;;2.00;0.00;;;;;11.07;100.00;99259.31;5098567;27;45379;-75
2022/11/22 10:33:03;;;;;;;;;1.00;0.00;;;;;11.12;100.00;99246.03;5098085;27;45470;-75
2022/11/22 10:35:41;;;;;;;;;0.00;0.00;;;;;11.18;100.00;99260.03;5097920;27;45764;-75
2022/11/22 10:38:36;;;;;;;;;0.00;0.00;;;;;11.22;100.00;99274.06;5097886;27;45417;-77
2022/11/22 10:41:29;;;;;;;;;3.00;0.00;;;;;11.20;100.00;99265.31;5098246;27;45397;-77
2022/11/22 10:44:16;;;;;;;;;2.00;1.00;;;;;11.26;100.00;99273.13;5099241;27;45472;-76
2022/11/22 10:46:54;;;;;;;;;2.67;1.00;;;;;11.25;100.00;99274.03;5097143;27;47648;-76
2022/11/22 10:49:39;;;;;;;;;0.00;0.00;;;;;11.23;100.00;99255.53;5098851;27;45491;-75
2022/11/22 10:52:13;;;;;;;;;0.67;0.67;;;;;11.25;100.00;99258.16;5098817;27;45254;-75
2022/11/22 10:55:04;;;;;;;;;3.00;0.00;;;;;11.24;100.00;99264.34;5099236;27;45139;-76
2022/11/22 10:58:04;;;;;;;;;2.33;0.00;;;;;11.31;100.00;99289.78;5095933;27;46995;-75
2022/11/22 11:00:31;;;;;;;;;0.33;0.00;;;;;11.33;100.00;99264.19;5098392;27;45446;-76
2022/11/22 11:03:18;;;;;;;;;2.00;0.33;;;;;11.34;100.00;99283.53;5097685;27;45318;-76
2022/11/22 11:06:20;;;;;;;;;2.67;0.00;;;;;11.44;100.00;99295.72;5085424;27;45303;-75
2022/11/22 11:08:53;;;;;;;;;0.33;0.00;;;;;11.45;100.00;99292.16;5078191;28;46979;-75
2022/11/22 11:11:20;;;;;;;;;0.00;0.00;;;;;11.50;100.00;99280.63;5076682;28;45362;-75
2022/11/22 11:13:49;;;;;;;;;1.00;0.00;;;;;11.54;100.00;99282.31;5059870;28;45347;-76
2022/11/22 11:16:21;;;;;;;;;1.00;0.00;;;;;11.55;100.00;99278.75;5059995;28;45649;-76
2022/11/22 11:18:52;;;;;;;;;2.00;0.00;;;;;11.65;100.00;99284.75;5059849;28;45823;-76
2022/11/22 11:21:18;;;;;;;;;0.00;0.00;;;;;11.74;100.00;99286.38;5059024;28;45933;-76
2022/11/22 11:23:43;;;;;;;;;1.00;0.00;;;;;11.85;100.00;99283.56;5076067;27;45478;-77
2022/11/22 11:26:19;;;;;;;;;1.00;0.00;;;;;11.83;100.00;99291.53;5077512;27;45447;-76
2022/11/22 11:28:45;;;;;;;;;4.00;0.00;;;;;11.78;100.00;99285.41;5056854;28;46846;-79
2022/11/22 11:31:17;;;;;;;;;3.33;0.00;;;;;11.77;100.00;99299.50;5071424;27;61584;-76
2022/11/22 11:33:42;;;;;;;;;1.67;0.00;;;;;11.74;100.00;99284.59;5050671;28;45258;-74
2022/11/22 11:36:13;;;;;;;;;2.00;0.00;;;;;11.73;100.00;99293.44;5059821;28;45524;-76
2022/11/22 11:38:41;;;;;;;;;1.00;0.00;;;;;11.83;100.00;99295.94;5078671;28;46663;-78
2022/11/22 11:41:17;;;;;;;;;4.00;0.33;;;;;11.83;100.00;99280.06;5059911;28;45473;-76
2022/11/22 11:43:43;;;;;;;;;1.00;1.00;;;;;11.79;100.00;99285.38;5086059;27;45275;-78
2022/11/22 11:46:17;;;;;;;;;1.00;0.67;;;;;11.79;100.00;99276.56;5057834;28;45350;-77
2022/11/22 11:48:43;;;;;;;;;3.00;0.00;;;;;11.77;100.00;99287.19;5059725;28;46110;-72
2022/11/22 11:51:23;;;;;;;;;0.00;0.00;;;;;11.80;100.00;99283.59;5059059;28;45329;-75
2022/11/22 11:53:55;;;;;;;;;0.67;0.00;;;;;11.84;100.00;99287.97;5077493;28;45598;-75